Check out our new BloomSky Weather System.

Active alerts


No alerts


Thunder radar  blitzortung!


Rain radar more information rain snow radar


Visit our other weather sites:

Template documentation
and downloads

And another site



Weather Underground History page Text

Daily Summary for October 30, 2017 Units:  English    Metric   Both
« Previous Day
Next Day »
Daily Weekly Monthly Yearly Custom
  High: Low: Average:
Temperature: 79.9 °F 43.5 °F 63 °F
Dew Point: 61.9 °F 38.3 °F 51.9 °F
Humidity: 93 % 47 % 69 %
Wind Speed: 12.0 mph 0.0 mph 1.8 mph
Wind Gust: 16.0 mph - -
Wind:- - SSE
Pressure: 30.02 in 29.91 in -
Precipitation: 0.00 in    
Historical Graphs
 
 
Tabular Data for October 30, 2017
Time Temperature Dew Point Pressure Wind Wind Speed Wind Gust Humidity Rainfall Rate (Hourly)
00:01 54.1 °F 38.3 °F 29.98 in SSE 1.0 mph 3.0 mph 55 % 0.00 in
00:06 54.1 °F 38.3 °F 29.98 in SSE 2.0 mph 3.0 mph 55 % 0.00 in
00:11 54.0 °F 38.7 °F 29.98 in SSE 2.0 mph 3.0 mph 56 % 0.00 in
00:16 54.0 °F 38.7 °F 29.98 in SE 1.0 mph 5.0 mph 56 % 0.00 in
00:21 54.0 °F 38.7 °F 29.98 in South 1.0 mph 5.0 mph 56 % 0.00 in
00:26 54.0 °F 38.7 °F 29.98 in SSE 1.0 mph 5.0 mph 56 % 0.00 in
00:31 53.8 °F 38.5 °F 29.98 in Calm   4.0 mph 56 % 0.00 in
00:36 53.8 °F 38.8 °F 29.98 in SSW 2.0 mph 3.0 mph 57 % 0.00 in
00:41 53.6 °F 38.7 °F 29.98 in SSW 1.0 mph 3.0 mph 57 % 0.00 in
00:46 53.6 °F 39.2 °F 29.98 in SSE 2.0 mph 4.0 mph 58 % 0.00 in
00:51 53.4 °F 39.0 °F 29.97 in SSW 1.0 mph 4.0 mph 58 % 0.00 in
00:56 53.4 °F 39.4 °F 29.97 in South 2.0 mph 4.0 mph 59 % 0.00 in
01:01 53.4 °F 39.4 °F 29.97 in SSE 2.0 mph 3.0 mph 59 % 0.00 in
01:06 53.4 °F 39.4 °F 29.97 in SSE 3.0 mph 4.0 mph 59 % 0.00 in
01:11 53.4 °F 39.4 °F 29.97 in SSE 1.0 mph 4.0 mph 59 % 0.00 in
01:16 53.2 °F 39.2 °F 29.97 in SSE 1.0 mph 4.0 mph 59 % 0.00 in
01:21 53.2 °F 39.7 °F 29.97 in SSE 1.0 mph 4.0 mph 60 % 0.00 in
01:26 53.2 °F 39.7 °F 29.97 in SSW 2.0 mph 4.0 mph 60 % 0.00 in
01:31 53.2 °F 39.7 °F 29.97 in SSW 2.0 mph 4.0 mph 60 % 0.00 in
01:36 53.2 °F 39.7 °F 29.97 in SSE 2.0 mph 4.0 mph 60 % 0.00 in
01:41 53.2 °F 40.1 °F 29.97 in SE 1.0 mph 4.0 mph 61 % 0.00 in
01:46 53.2 °F 40.1 °F 29.97 in Calm   4.0 mph 61 % 0.00 in
01:51 53.1 °F 39.9 °F 29.97 in South 2.0 mph 3.0 mph 61 % 0.00 in
01:56 53.1 °F 39.9 °F 29.97 in SE 1.0 mph 3.0 mph 61 % 0.00 in
02:01 53.1 °F 39.9 °F 29.97 in South 1.0 mph 3.0 mph 61 % 0.00 in
02:06 52.9 °F 39.7 °F 29.96 in South 1.0 mph 3.0 mph 61 % 0.00 in
02:11 52.7 °F 40.1 °F 29.97 in Calm   3.0 mph 62 % 0.00 in
02:16 52.3 °F 39.7 °F 29.97 in Calm   1.0 mph 62 % 0.00 in
02:21 52.0 °F 39.7 °F 29.97 in SSW 1.0 mph 1.0 mph 63 % 0.00 in
02:26 51.6 °F 39.9 °F 29.97 in Calm   1.0 mph 64 % 0.00 in
02:31 51.3 °F 39.6 °F 29.97 in Calm   1.0 mph 64 % 0.00 in
02:36 50.9 °F 39.6 °F 29.97 in Calm   1.0 mph 65 % 0.00 in
02:41 50.4 °F 39.4 °F 29.96 in Calm   1.0 mph 66 % 0.00 in
02:46 49.8 °F 39.4 °F 29.96 in Calm     67 % 0.00 in
02:51 49.3 °F 39.6 °F 29.96 in Calm     69 % 0.00 in
02:56 48.7 °F 39.4 °F 29.96 in Calm     70 % 0.00 in
03:01 48.4 °F 40.1 °F 29.96 in Calm     73 % 0.00 in
03:06 48.0 °F 39.4 °F 29.96 in Calm     72 % 0.00 in
03:11 47.7 °F 39.7 °F 29.96 in Calm     74 % 0.00 in
03:16 47.5 °F 39.9 °F 29.96 in Calm     75 % 0.00 in
03:21 47.3 °F 40.1 °F 29.96 in Calm     76 % 0.00 in
03:26 47.1 °F 40.3 °F 29.96 in Calm     77 % 0.00 in
03:31 46.9 °F 40.1 °F 29.96 in Calm     77 % 0.00 in
03:36 46.6 °F 39.7 °F 29.96 in Calm     77 % 0.00 in
03:41 46.0 °F 39.2 °F 29.96 in Calm     77 % 0.00 in
03:46 45.7 °F 39.6 °F 29.96 in Calm     79 % 0.00 in
03:51 45.5 °F 39.4 °F 29.96 in Calm     79 % 0.00 in
03:56 45.0 °F 38.8 °F 29.96 in Calm     79 % 0.00 in
04:01 45.0 °F 39.7 °F 29.96 in Calm     82 % 0.00 in
04:06 45.0 °F 39.7 °F 29.96 in Calm     82 % 0.00 in
04:11 45.1 °F 40.3 °F 29.96 in Calm     83 % 0.00 in
04:16 45.1 °F 40.3 °F 29.96 in Calm     83 % 0.00 in
04:21 45.1 °F 40.6 °F 29.96 in Calm     84 % 0.00 in
04:26 45.0 °F 40.5 °F 29.96 in Calm     84 % 0.00 in
04:31 45.0 °F 40.6 °F 29.96 in Calm     85 % 0.00 in
04:36 45.1 °F 40.8 °F 29.96 in Calm     85 % 0.00 in
04:41 45.1 °F 40.8 °F 29.96 in Calm     85 % 0.00 in
04:46 45.1 °F 41.2 °F 29.96 in Calm     86 % 0.00 in
04:51 45.1 °F 40.8 °F 29.96 in Calm     85 % 0.00 in
04:56 45.1 °F 41.2 °F 29.96 in Calm     86 % 0.00 in
05:01 45.1 °F 41.2 °F 29.96 in Calm     86 % 0.00 in
05:11 45.0 °F 41.0 °F 29.96 in Calm     86 % 0.00 in
05:16 44.4 °F 40.5 °F 29.95 in Calm     86 % 0.00 in
05:21 44.1 °F 40.1 °F 29.95 in Calm     86 % 0.00 in
05:26 44.1 °F 40.5 °F 29.95 in Calm     87 % 0.00 in
05:31 44.2 °F 41.0 °F 29.95 in Calm     88 % 0.00 in
05:36 44.2 °F 41.0 °F 29.96 in Calm     88 % 0.00 in
05:41 44.4 °F 41.4 °F 29.96 in Calm     89 % 0.00 in
05:46 44.6 °F 41.5 °F 29.96 in Calm     89 % 0.00 in
05:51 44.6 °F 41.5 °F 29.96 in Calm     89 % 0.00 in
05:56 44.6 °F 41.5 °F 29.96 in Calm     89 % 0.00 in
06:01 44.6 °F 41.5 °F 29.96 in Calm     89 % 0.00 in
06:06 44.6 °F 41.5 °F 29.96 in Calm     89 % 0.00 in
06:11 44.6 °F 41.5 °F 29.96 in Calm     89 % 0.00 in
06:16 44.4 °F 41.4 °F 29.96 in Calm     89 % 0.00 in
06:21 44.4 °F 41.7 °F 29.96 in Calm     90 % 0.00 in
06:26 44.6 °F 41.9 °F 29.96 in Calm     90 % 0.00 in
06:31 44.6 °F 41.9 °F 29.96 in Calm     90 % 0.00 in
06:36 44.6 °F 41.9 °F 29.96 in Calm     90 % 0.00 in
06:41 44.8 °F 42.1 °F 29.96 in Calm     90 % 0.00 in
06:46 44.8 °F 42.1 °F 29.96 in Calm     90 % 0.00 in
06:51 44.8 °F 42.1 °F 29.96 in Calm     90 % 0.00 in
06:56 44.6 °F 41.9 °F 29.96 in Calm     90 % 0.00 in
07:01 44.8 °F 42.3 °F 29.96 in Calm     91 % 0.00 in
07:06 44.8 °F 42.3 °F 29.96 in Calm     91 % 0.00 in
07:11 44.8 °F 42.3 °F 29.96 in Calm     91 % 0.00 in
07:16 44.8 °F 42.3 °F 29.96 in Calm     91 % 0.00 in
07:21 44.8 °F 42.3 °F 29.96 in Calm     91 % 0.00 in
07:26 44.8 °F 42.3 °F 29.96 in Calm     91 % 0.00 in
07:31 44.8 °F 42.3 °F 29.97 in Calm     91 % 0.00 in
07:36 44.6 °F 42.1 °F 29.96 in Calm     91 % 0.00 in
07:41 44.4 °F 41.7 °F 29.97 in Calm     90 % 0.00 in
07:46 44.1 °F 41.4 °F 29.97 in Calm     90 % 0.00 in
07:51 43.9 °F 41.4 °F 29.97 in Calm     91 % 0.00 in
07:56 43.7 °F 41.2 °F 29.97 in Calm     91 % 0.00 in
08:01 43.5 °F 41.0 °F 29.98 in Calm     91 % 0.00 in
08:06 43.7 °F 41.5 °F 29.98 in Calm     92 % 0.00 in
08:11 43.9 °F 41.7 °F 29.98 in Calm     92 % 0.00 in
08:16 44.2 °F 42.3 °F 29.98 in Calm     93 % 0.00 in
08:21 45.0 °F 43.0 °F 29.99 in Calm     93 % 0.00 in
08:26 45.7 °F 43.7 °F 29.99 in Calm     93 % 0.00 in
08:31 46.9 °F 45.0 °F 29.99 in Calm     93 % 0.00 in
08:36 48.2 °F 45.7 °F 29.99 in Calm     91 % 0.00 in
08:41 49.6 °F 46.6 °F 29.99 in Calm     89 % 0.00 in
08:46 51.8 °F 48.9 °F 29.99 in Calm     90 % 0.00 in
08:51 54.1 °F 50.0 °F 29.99 in Calm     86 % 0.00 in
08:56 56.3 °F 50.2 °F 30.00 in Calm     80 % 0.00 in
08:57 56.8 °F 50.4 °F 30.00 in Calm     79 % 0.00 in
09:07 59.9 °F 51.3 °F 30.00 in Calm     73 % 0.00 in
09:12 60.8 °F 51.3 °F 30.00 in SSW 1.0 mph   71 % 0.00 in
09:17 61.7 °F 51.4 °F 30.00 in Calm   1.0 mph 69 % 0.00 in
09:22 62.6 °F 52.0 °F 30.01 in Calm   1.0 mph 68 % 0.00 in
09:27 63.3 °F 52.2 °F 30.01 in Calm   2.0 mph 67 % 0.00 in
09:32 64.0 °F 52.0 °F 30.01 in Calm   2.0 mph 65 % 0.00 in
09:37 64.8 °F 51.4 °F 30.01 in Calm   2.0 mph 62 % 0.00 in
09:42 64.8 °F 51.8 °F 30.01 in SSE 1.0 mph 3.0 mph 63 % 0.00 in
09:47 65.1 °F 52.7 °F 30.01 in SSW 1.0 mph 3.0 mph 64 % 0.00 in
09:52 66.4 °F 52.9 °F 30.01 in South 1.0 mph 3.0 mph 62 % 0.00 in
09:57 66.9 °F 52.5 °F 30.01 in Calm   3.0 mph 60 % 0.00 in
09:58 66.7 °F 52.3 °F 30.01 in SSE 1.0 mph 3.0 mph 60 % 0.00 in
10:03 67.1 °F 53.2 °F 30.01 in South 1.0 mph 2.0 mph 61 % 0.00 in
10:08 67.6 °F 52.9 °F 30.01 in South 2.0 mph 3.0 mph 59 % 0.00 in
10:13 68.2 °F 53.8 °F 30.01 in SE 1.0 mph 3.0 mph 60 % 0.00 in
10:18 68.4 °F 53.1 °F 30.01 in SSE 2.0 mph 3.0 mph 58 % 0.00 in
10:23 69.1 °F 54.1 °F 30.01 in Calm   4.0 mph 59 % 0.00 in
10:28 70.0 °F 54.5 °F 30.01 in South 1.0 mph 4.0 mph 58 % 0.00 in
10:33 70.2 °F 54.1 °F 30.01 in SSW 3.0 mph 4.0 mph 57 % 0.00 in
10:38 70.5 °F 54.5 °F 30.01 in SSE 1.0 mph 4.0 mph 57 % 0.00 in
10:43 71.4 °F 55.4 °F 30.01 in SSW 2.0 mph 4.0 mph 57 % 0.00 in
10:48 72.1 °F 55.6 °F 30.01 in SE 1.0 mph 4.0 mph 56 % 0.00 in
10:53 72.5 °F 54.9 °F 30.02 in South 2.0 mph 4.0 mph 54 % 0.00 in
10:58 72.1 °F 55.0 °F 30.01 in SSE 3.0 mph 6.0 mph 55 % 0.00 in
11:03 72.3 °F 54.7 °F 30.01 in SE 3.0 mph 6.0 mph 54 % 0.00 in
11:08 72.3 °F 55.2 °F 30.01 in SSW 3.0 mph 6.0 mph 55 % 0.00 in
11:13 72.9 °F 55.2 °F 30.01 in SW 3.0 mph 6.0 mph 54 % 0.00 in
11:23 73.8 °F 55.6 °F 30.01 in SE 5.0 mph 6.0 mph 53 % 0.00 in
11:28 73.9 °F 55.8 °F 30.01 in SSW 4.0 mph 6.0 mph 53 % 0.00 in
11:33 74.1 °F 56.5 °F 30.01 in SSW 7.0 mph 9.0 mph 54 % 0.00 in
11:38 74.7 °F 56.8 °F 30.01 in SE 3.0 mph 9.0 mph 54 % 0.00 in
11:43 74.5 °F 56.7 °F 30.01 in SSE 4.0 mph 9.0 mph 54 % 0.00 in
11:48 74.8 °F 57.0 °F 30.01 in SSE 4.0 mph 9.0 mph 54 % 0.00 in
11:53 74.5 °F 57.2 °F 30.00 in South 7.0 mph 9.0 mph 55 % 0.00 in
11:58 75.0 °F 57.7 °F 30.00 in South 4.0 mph 12.0 mph 55 % 0.00 in
12:08 74.7 °F 57.4 °F 30.00 in WSW 1.0 mph 12.0 mph 55 % 0.00 in
12:13 75.4 °F 58.1 °F 30.00 in NNW 2.0 mph 12.0 mph 55 % 0.00 in
12:18 75.9 °F 57.6 °F 30.00 in SSE 4.0 mph 12.0 mph 53 % 0.00 in
12:23 76.1 °F 57.7 °F 30.00 in South 2.0 mph 9.0 mph 53 % 0.00 in
12:28 76.6 °F 58.3 °F 30.00 in South 4.0 mph 9.0 mph 53 % 0.00 in
12:33 76.6 °F 57.7 °F 29.99 in SSE 5.0 mph 11.0 mph 52 % 0.00 in
12:38 76.3 °F 57.4 °F 29.99 in SSE 8.0 mph 13.0 mph 52 % 0.00 in
12:39 76.3 °F 57.4 °F 29.99 in SE 12.0 mph 13.0 mph 52 % 0.00 in
12:44 75.9 °F 57.6 °F 29.99 in SE 4.0 mph 15.0 mph 53 % 0.00 in
12:49 75.9 °F 57.6 °F 29.99 in SW 6.0 mph 15.0 mph 53 % 0.00 in
12:54 76.3 °F 57.9 °F 29.99 in SW 12.0 mph 15.0 mph 53 % 0.00 in
12:59 76.5 °F 57.6 °F 29.98 in SE 6.0 mph 16.0 mph 52 % 0.00 in
13:04 76.5 °F 57.6 °F 29.98 in SE 9.0 mph 16.0 mph 52 % 0.00 in
13:09 76.8 °F 58.5 °F 29.98 in SSW 4.0 mph 16.0 mph 53 % 0.00 in
13:14 77.2 °F 57.0 °F 29.98 in SSW 2.0 mph 13.0 mph 50 % 0.00 in
13:19 77.4 °F 57.7 °F 29.97 in SE 7.0 mph 15.0 mph 51 % 0.00 in
13:24 77.7 °F 58.1 °F 29.97 in SSW 2.0 mph 15.0 mph 51 % 0.00 in
13:29 77.9 °F 58.3 °F 29.97 in SSW 7.0 mph 15.0 mph 51 % 0.00 in
13:34 77.5 °F 57.9 °F 29.96 in SSE 3.0 mph 13.0 mph 51 % 0.00 in
13:39 78.3 °F 59.2 °F 29.96 in SSE 3.0 mph 13.0 mph 52 % 0.00 in
13:44 78.3 °F 58.1 °F 29.96 in SE 4.0 mph 13.0 mph 50 % 0.00 in
13:49 78.4 °F 58.3 °F 29.95 in SSE 2.0 mph 11.0 mph 50 % 0.00 in
13:54 78.4 °F 58.3 °F 29.95 in SE 8.0 mph 12.0 mph 50 % 0.00 in
14:04 77.7 °F 58.1 °F 29.94 in SE 3.0 mph 12.0 mph 51 % 0.00 in
14:09 78.1 °F 57.4 °F 29.94 in SE 4.0 mph 10.0 mph 49 % 0.00 in
14:14 77.9 °F 57.7 °F 29.94 in SSE 7.0 mph 10.0 mph 50 % 0.00 in
14:19 78.3 °F 58.1 °F 29.93 in SSE 4.0 mph 13.0 mph 50 % 0.00 in
14:29 79.5 °F 58.6 °F 29.93 in SSW 6.0 mph 13.0 mph 49 % 0.00 in
14:34 79.5 °F 58.1 °F 29.93 in SSW 5.0 mph 12.0 mph 48 % 0.00 in
14:39 79.2 °F 58.3 °F 29.93 in SSE 5.0 mph 12.0 mph 49 % 0.00 in
14:44 79.9 °F 58.5 °F 29.92 in South 2.0 mph 11.0 mph 48 % 0.00 in
14:49 79.7 °F 58.3 °F 29.92 in South 5.0 mph 11.0 mph 48 % 0.00 in
14:59 79.9 °F 57.9 °F 29.92 in SSE 10.0 mph 10.0 mph 47 % 0.00 in
15:04 79.3 °F 57.4 °F 29.92 in South 7.0 mph 11.0 mph 47 % 0.00 in
15:09 78.6 °F 57.9 °F 29.92 in East 8.0 mph 11.0 mph 49 % 0.00 in
15:14 78.4 °F 57.7 °F 29.92 in South 4.0 mph 11.0 mph 49 % 0.00 in
15:19 78.1 °F 57.4 °F 29.92 in SW 3.0 mph 12.0 mph 49 % 0.00 in
15:24 78.3 °F 57.6 °F 29.92 in SW 1.0 mph 12.0 mph 49 % 0.00 in
15:29 79.0 °F 58.8 °F 29.92 in SSW 5.0 mph 12.0 mph 50 % 0.00 in
15:34 79.2 °F 57.7 °F 29.92 in SE 5.0 mph 9.0 mph 48 % 0.00 in
15:39 78.4 °F 58.3 °F 29.92 in South 4.0 mph 10.0 mph 50 % 0.00 in
15:44 78.1 °F 57.9 °F 29.92 in SSE 2.0 mph 10.0 mph 50 % 0.00 in
15:49 77.7 °F 58.1 °F 29.92 in SE 5.0 mph 10.0 mph 51 % 0.00 in
15:54 78.3 °F 58.1 °F 29.91 in SSE 4.0 mph 8.0 mph 50 % 0.00 in
15:59 78.6 °F 58.5 °F 29.91 in SE 3.0 mph 8.0 mph 50 % 0.00 in
16:04 79.0 °F 59.4 °F 29.91 in South 8.0 mph 8.0 mph 51 % 0.00 in
16:09 78.8 °F 58.1 °F 29.91 in ESE 4.0 mph 12.0 mph 49 % 0.00 in
16:14 78.3 °F 58.1 °F 29.91 in SE 4.0 mph 12.0 mph 50 % 0.00 in
16:19 78.3 °F 58.6 °F 29.91 in SSE 3.0 mph 12.0 mph 51 % 0.00 in
16:24 78.6 °F 58.5 °F 29.91 in SE 6.0 mph 12.0 mph 50 % 0.00 in
16:29 79.0 °F 58.8 °F 29.91 in SSW 4.0 mph 8.0 mph 50 % 0.00 in
16:34 79.2 °F 57.7 °F 29.92 in SE 5.0 mph 9.0 mph 48 % 0.00 in
16:39 79.3 °F 58.5 °F 29.92 in SSE 2.0 mph 9.0 mph 49 % 0.00 in
16:44 79.3 °F 57.9 °F 29.92 in SSE 7.0 mph 9.0 mph 48 % 0.00 in
16:49 78.8 °F 58.1 °F 29.92 in SE 3.0 mph 7.0 mph 49 % 0.00 in
16:54 78.8 °F 58.6 °F 29.92 in SSE 6.0 mph 8.0 mph 50 % 0.00 in
17:04 78.3 °F 58.6 °F 29.92 in ESE 4.0 mph 8.0 mph 51 % 0.00 in
17:09 78.1 °F 58.5 °F 29.92 in SSE 1.0 mph 8.0 mph 51 % 0.00 in
17:14 78.1 °F 59.0 °F 29.92 in SSW 2.0 mph 8.0 mph 52 % 0.00 in
17:19 78.1 °F 58.5 °F 29.92 in SSE 3.0 mph 6.0 mph 51 % 0.00 in
17:24 78.1 °F 58.5 °F 29.92 in SSE 1.0 mph 6.0 mph 51 % 0.00 in
17:29 77.9 °F 58.8 °F 29.92 in ESE 4.0 mph 4.0 mph 52 % 0.00 in
17:34 77.7 °F 59.2 °F 29.92 in SSW 4.0 mph 7.0 mph 53 % 0.00 in
17:39 77.5 °F 59.0 °F 29.92 in SE 4.0 mph 7.0 mph 53 % 0.00 in
17:44 77.4 °F 59.9 °F 29.92 in SE 3.0 mph 7.0 mph 55 % 0.00 in
17:49 77.0 °F 59.5 °F 29.92 in South 2.0 mph 6.0 mph 55 % 0.00 in
17:54 76.6 °F 59.7 °F 29.92 in SSE 5.0 mph 6.0 mph 56 % 0.00 in
17:59 76.6 °F 59.7 °F 29.92 in SE 3.0 mph 6.0 mph 56 % 0.00 in
18:04 76.5 °F 60.6 °F 29.92 in ESE 6.0 mph 6.0 mph 58 % 0.00 in
18:09 75.9 °F 60.6 °F 29.92 in ESE 4.0 mph 7.0 mph 59 % 0.00 in
18:14 75.6 °F 60.6 °F 29.92 in ESE 2.0 mph 9.0 mph 60 % 0.00 in
18:19 75.4 °F 61.0 °F 29.93 in ESE 7.0 mph 9.0 mph 61 % 0.00 in
18:24 75.0 °F 61.2 °F 29.93 in SE 3.0 mph 9.0 mph 62 % 0.00 in
18:29 74.7 °F 61.2 °F 29.93 in ESE 3.0 mph 9.0 mph 63 % 0.00 in
18:34 74.5 °F 61.0 °F 29.93 in ESE 6.0 mph 9.0 mph 63 % 0.00 in
18:39 74.1 °F 61.2 °F 29.93 in ESE 5.0 mph 9.0 mph 64 % 0.00 in
18:44 73.9 °F 61.0 °F 29.93 in ESE 5.0 mph 9.0 mph 64 % 0.00 in
18:49 73.8 °F 61.3 °F 29.93 in SE 1.0 mph 7.0 mph 65 % 0.00 in
18:54 73.4 °F 61.3 °F 29.93 in SE 2.0 mph 7.0 mph 66 % 0.00 in
18:59 73.2 °F 61.2 °F 29.94 in East 4.0 mph 7.0 mph 66 % 0.00 in
19:04 72.9 °F 61.3 °F 29.94 in ESE 2.0 mph 7.0 mph 67 % 0.00 in
19:09 72.7 °F 61.2 °F 29.94 in SE 3.0 mph 5.0 mph 67 % 0.00 in
19:14 72.3 °F 61.2 °F 29.94 in East 3.0 mph 6.0 mph 68 % 0.00 in
19:19 72.1 °F 61.0 °F 29.94 in SE 4.0 mph 6.0 mph 68 % 0.00 in
19:24 72.1 °F 61.3 °F 29.94 in SE 6.0 mph 8.0 mph 69 % 0.00 in
19:29 72.0 °F 61.2 °F 29.94 in SE 4.0 mph 9.0 mph 69 % 0.00 in
19:34 72.0 °F 61.7 °F 29.95 in SE 5.0 mph 9.0 mph 70 % 0.00 in
19:39 72.0 °F 61.7 °F 29.95 in SE 3.0 mph 9.0 mph 70 % 0.00 in
19:44 71.8 °F 61.5 °F 29.95 in ESE 4.0 mph 9.0 mph 70 % 0.00 in
19:49 71.8 °F 61.5 °F 29.96 in SE 3.0 mph 9.0 mph 70 % 0.00 in
19:54 71.8 °F 61.9 °F 29.96 in SE 4.0 mph 9.0 mph 71 % 0.00 in
19:59 71.4 °F 61.5 °F 29.96 in SE 3.0 mph 8.0 mph 71 % 0.00 in
20:00 71.4 °F 61.5 °F 29.96 in ESE 1.0 mph 8.0 mph 71 % 0.00 in
20:05 71.1 °F 61.5 °F 29.96 in South 2.0 mph 6.0 mph 72 % 0.00 in
20:10 70.9 °F 61.3 °F 29.96 in South 2.0 mph 6.0 mph 72 % 0.00 in
20:25 70.2 °F 61.5 °F 29.96 in ESE 2.0 mph 4.0 mph 74 % 0.00 in
20:30 70.0 °F 61.3 °F 29.96 in South 2.0 mph 4.0 mph 74 % 0.00 in
20:35 69.6 °F 61.3 °F 29.96 in SE 1.0 mph 4.0 mph 75 % 0.00 in
20:40 69.4 °F 61.5 °F 29.96 in SSE 1.0 mph 4.0 mph 76 % 0.00 in
20:45 69.1 °F 61.2 °F 29.96 in SE 1.0 mph 4.0 mph 76 % 0.00 in
20:50 68.7 °F 61.2 °F 29.97 in ESE 1.0 mph 3.0 mph 77 % 0.00 in
20:55 68.7 °F 61.5 °F 29.97 in East 2.0 mph 3.0 mph 78 % 0.00 in
21:00 68.5 °F 61.3 °F 29.97 in SE 1.0 mph 4.0 mph 78 % 0.00 in
21:01 68.5 °F 61.3 °F 29.97 in SE 2.0 mph 4.0 mph 78 % 0.00 in
21:06 68.5 °F 61.3 °F 29.97 in ESE 1.0 mph 4.0 mph 78 % 0.00 in
21:11 68.4 °F 61.2 °F 29.97 in ESE 1.0 mph 4.0 mph 78 % 0.00 in
21:16 68.2 °F 61.3 °F 29.97 in ESE 1.0 mph 4.0 mph 79 % 0.00 in
21:21 68.0 °F 61.2 °F 29.97 in Calm   3.0 mph 79 % 0.00 in
21:26 67.6 °F 61.0 °F 29.97 in Calm   3.0 mph 79 % 0.00 in
21:31 67.3 °F 61.0 °F 29.98 in Calm   3.0 mph 80 % 0.00 in
21:36 66.9 °F 61.0 °F 29.98 in Calm   1.0 mph 81 % 0.00 in
21:41 66.6 °F 60.6 °F 29.98 in Calm   1.0 mph 81 % 0.00 in
21:46 66.2 °F 60.6 °F 29.99 in Calm   1.0 mph 82 % 0.00 in
21:51 65.8 °F 60.6 °F 29.99 in Calm     83 % 0.00 in
21:56 65.7 °F 60.6 °F 29.99 in Calm   1.0 mph 84 % 0.00 in
22:01 65.3 °F 60.3 °F 29.99 in Calm   1.0 mph 84 % 0.00 in
22:06 65.1 °F 60.4 °F 29.99 in Calm   1.0 mph 85 % 0.00 in
22:11 64.9 °F 60.3 °F 30.00 in Calm     85 % 0.00 in
22:17 64.8 °F 60.4 °F 30.00 in Calm   1.0 mph 86 % 0.00 in
22:22 64.2 °F 59.9 °F 30.00 in Calm   1.0 mph 86 % 0.00 in
22:24 64.2 °F 59.5 °F 30.00 in Calm   1.0 mph 85 % 0.00 in
22:26 64.0 °F 59.7 °F 30.00 in Calm   1.0 mph 86 % 0.00 in
22:27 63.9 °F 59.5 °F 30.00 in Calm   1.0 mph 86 % 0.00 in
22:29 63.9 °F 59.9 °F 30.01 in Calm   1.0 mph 87 % 0.00 in
22:32 63.7 °F 59.7 °F 30.01 in Calm     87 % 0.00 in
22:37 63.7 °F 60.1 °F 30.01 in Calm   1.0 mph 88 % 0.00 in
22:42 63.7 °F 60.1 °F 30.01 in Calm   1.0 mph 88 % 0.00 in
22:47 63.3 °F 59.7 °F 30.01 in Calm   1.0 mph 88 % 0.00 in
22:52 63.1 °F 59.5 °F 30.01 in Calm   1.0 mph 88 % 0.00 in
22:57 63.0 °F 59.7 °F 30.01 in Calm   1.0 mph 89 % 0.00 in
23:02 63.0 °F 59.7 °F 30.01 in Calm   1.0 mph 89 % 0.00 in
23:07 62.8 °F 59.5 °F 30.01 in Calm   1.0 mph 89 % 0.00 in
23:12 63.0 °F 59.9 °F 30.01 in Calm     90 % 0.00 in
23:17 62.8 °F 59.7 °F 30.02 in Calm     90 % 0.00 in
23:22 62.8 °F 59.7 °F 30.02 in Calm     90 % 0.00 in
23:27 62.8 °F 59.7 °F 30.02 in Calm     90 % 0.00 in
23:32 62.8 °F 59.7 °F 30.02 in Calm   1.0 mph 90 % 0.00 in
23:37 63.0 °F 59.9 °F 30.02 in Calm   1.0 mph 90 % 0.00 in
23:42 63.0 °F 59.9 °F 30.02 in Calm   1.0 mph 90 % 0.00 in
23:43 63.0 °F 59.9 °F 30.02 in Calm   1.0 mph 90 % 0.00 in
23:48 63.0 °F 59.9 °F 30.02 in Calm   1.0 mph 90 % 0.00 in
23:53 63.0 °F 59.9 °F 30.02 in Calm   1.0 mph 90 % 0.00 in
23:58 63.0 °F 59.9 °F 30.02 in Calm   1.0 mph 90 % 0.00 in
Spring, Texas: Villages of Bridgestone
Compliments of Weather Underground - 2.75 mb

Script developed by  Jim McMurry - jmcmurry@mwt.net Adapted for the template by  Wim van der Kuil - Leuven-Template.eu

You find our weather info also at:

UK Metoffice

WeatherCloud

Weather Underground

Mid-South Weather Network

AWEKAS

Citizen Weather Observer Program (CWOP)

HAMweather, WeatherForYou, PWS Weather

Equipment we use:

Weather-station
Davis Vantage Vue

Weather-program
Meteohub

Weather-server
Debian 7.9 x86 (Guest)

Provider
DreamHost

Davis Vantage Vue

Meteohub

Debian 7.9 x86 (Guest)

DreamHost